Time;durP1;ratioP1;P1;durP2;ratioP2;P2;SDS_P1;SDS_P2;PMS_P1;PMS_P2;Temp;Humidity;BMP_temperature;BMP_pressure;BME280_temperature;BME280_humidity;BME280_pressure;Samples;Min_cycle;Max_cycle;Signal;HPM_P1;HPM_P2
2022/05/05 00:02:07;;;;;;;;;;;14.40;70.60;;;;;;5073106;28;19978;-75
2022/05/05 00:04:32;;;;;;;;;;;14.40;70.90;;;;;;5072888;28;19975;-75
2022/05/05 00:06:59;;;;;;;;;;;14.30;71.00;;;;;;5091377;28;19943;-75
2022/05/05 00:09:25;;;;;;;;;;;14.30;71.10;;;;;;5091207;28;20428;-76
2022/05/05 00:14:35;;;;;;;;;;;14.30;71.00;;;;;;5076191;28;19986;-75
2022/05/05 00:17:02;;;;;;;;;;;14.30;70.90;;;;;;5072907;28;19916;-75
2022/05/05 00:19:28;;;;;;;;;;;14.30;71.00;;;;;;5089609;28;19962;-75
2022/05/05 00:21:54;;;;;;;;;;;14.20;71.10;;;;;;5072580;28;19909;-75
2022/05/05 00:24:20;;;;;;;;;;;14.20;71.10;;;;;;5090944;28;19908;-74
2022/05/05 00:26:46;;;;;;;;;;;14.10;71.20;;;;;;5091078;28;19960;-74
2022/05/05 00:29:12;;;;;;;;;;;14.10;71.40;;;;;;5072612;28;19962;-75
2022/05/05 00:31:38;;;;;;;;;;;14.10;71.50;;;;;;5072443;28;20350;-75
2022/05/05 00:34:03;;;;;;;;;;;14.10;71.60;;;;;;5072589;28;19912;-75
2022/05/05 00:36:29;;;;;;;;;;;14.10;71.60;;;;;;5090669;28;19916;-76
2022/05/05 00:38:54;;;;;;;;;;;14.10;71.70;;;;;;5090725;28;20291;-75
2022/05/05 00:41:20;;;;;;;;;;;14.10;71.90;;;;;;5072581;28;19959;-75
2022/05/05 00:43:46;;;;;;;;;;;14.10;71.90;;;;;;5072372;28;19924;-76
2022/05/05 00:46:11;;;;;;;;;;;14.10;71.90;;;;;;5072414;28;20408;-75
2022/05/05 00:48:37;;;;;;;;;;;14.10;71.90;;;;;;5072049;28;19971;-75
2022/05/05 00:51:02;;;;;;;;;;;14.20;71.90;;;;;;5072305;28;19915;-75
2022/05/05 00:53:28;;;;;;;;;;;14.10;71.90;;;;;;5090353;28;20368;-75
2022/05/05 00:55:55;;;;;;;;;;;14.10;72.10;;;;;;5072139;28;20103;-75
2022/05/05 00:58:22;;;;;;;;;;;14.00;72.20;;;;;;5090349;28;19912;-75
2022/05/05 01:00:47;;;;;;;;;;;14.00;72.30;;;;;;5091623;28;19931;-76
2022/05/05 01:03:14;;;;;;;;;;;14.00;72.60;;;;;;5072305;28;20346;-75
2022/05/05 01:05:39;;;;;;;;;;;13.90;72.80;;;;;;5072337;28;19920;-77
2022/05/05 01:08:05;;;;;;;;;;;13.90;72.90;;;;;;5090152;28;19916;-74
2022/05/05 01:10:31;;;;;;;;;;;13.80;72.70;;;;;;5090135;28;20004;-75
2022/05/05 01:12:56;;;;;;;;;;;13.80;72.80;;;;;;5071892;28;19912;-75
2022/05/05 01:15:22;;;;;;;;;;;13.70;73.00;;;;;;5071750;28;19912;-75
2022/05/05 01:17:47;;;;;;;;;;;13.70;73.10;;;;;;5071865;28;19916;-75
2022/05/05 01:20:14;;;;;;;;;;;13.60;73.20;;;;;;5090296;28;19959;-74
2022/05/05 01:22:39;;;;;;;;;;;13.50;73.40;;;;;;5089924;28;20346;-74
2022/05/05 01:30:34;;;;;;;;;;;13.40;74.00;;;;;;5074377;28;20042;-75
2022/05/05 01:32:59;;;;;;;;;;;13.40;74.10;;;;;;5071656;28;20010;-74
2022/05/05 01:35:25;;;;;;;;;;;13.40;74.00;;;;;;5071522;28;19989;-75
2022/05/05 01:37:51;;;;;;;;;;;13.50;74.20;;;;;;5089950;28;20358;-75
2022/05/05 01:40:16;;;;;;;;;;;13.50;74.20;;;;;;5071177;28;19918;-76
2022/05/05 01:42:42;;;;;;;;;;;13.50;74.30;;;;;;5089166;28;19947;-76
2022/05/05 01:45:08;;;;;;;;;;;13.50;74.30;;;;;;5071132;28;19912;-75
2022/05/05 01:47:34;;;;;;;;;;;13.50;74.50;;;;;;5089115;28;20171;-74
2022/05/05 01:50:00;;;;;;;;;;;13.60;74.40;;;;;;5070994;28;20374;-74
2022/05/05 01:52:27;;;;;;;;;;;13.60;74.40;;;;;;5071151;28;19961;-75
2022/05/05 01:54:52;;;;;;;;;;;13.60;74.30;;;;;;5070903;28;19912;-75
2022/05/05 01:57:18;;;;;;;;;;;13.60;74.40;;;;;;5054354;28;19934;-76
2022/05/05 01:59:43;;;;;;;;;;;13.60;74.40;;;;;;5089092;28;19912;-75
2022/05/05 02:02:09;;;;;;;;;;;13.60;74.50;;;;;;5088856;28;20270;-75
2022/05/05 02:04:35;;;;;;;;;;;13.60;74.50;;;;;;5089119;28;19916;-75
2022/05/05 02:07:00;;;;;;;;;;;13.60;74.50;;;;;;5070866;28;19919;-75
2022/05/05 02:09:26;;;;;;;;;;;13.60;74.50;;;;;;5053976;28;20000;-75
2022/05/05 02:11:53;;;;;;;;;;;13.50;74.30;;;;;;5070684;28;19916;-76
2022/05/05 02:14:19;;;;;;;;;;;13.50;74.30;;;;;;5088968;28;19908;-74
2022/05/05 02:16:45;;;;;;;;;;;13.40;74.30;;;;;;5088820;28;19986;-76
2022/05/05 02:19:10;;;;;;;;;;;13.30;74.20;;;;;;5088763;28;19912;-74
2022/05/05 02:21:36;;;;;;;;;;;13.20;74.60;;;;;;5088730;28;20288;-76
2022/05/05 02:24:02;;;;;;;;;;;13.10;74.60;;;;;;5088836;28;19961;-75
2022/05/05 02:26:27;;;;;;;;;;;13.00;74.70;;;;;;5070684;28;20293;-76
2022/05/05 02:28:53;;;;;;;;;;;12.90;75.50;;;;;;5070403;28;19920;-75
2022/05/05 02:31:18;;;;;;;;;;;12.90;75.00;;;;;;5053772;28;19912;-76
2022/05/05 02:33:44;;;;;;;;;;;12.80;75.00;;;;;;5053779;28;20323;-75
2022/05/05 02:38:55;;;;;;;;;;;12.80;75.30;;;;;;5088869;28;19938;-75
2022/05/05 02:41:20;;;;;;;;;;;12.80;75.50;;;;;;5070604;28;19920;-75
2022/05/05 02:43:46;;;;;;;;;;;12.80;75.80;;;;;;5052724;28;19927;-76
2022/05/05 02:46:12;;;;;;;;;;;12.80;76.00;;;;;;5070289;28;19987;-76
2022/05/05 02:48:37;;;;;;;;;;;12.70;75.80;;;;;;5088272;28;19927;-74
2022/05/05 02:51:03;;;;;;;;;;;12.70;76.00;;;;;;5088272;28;19912;-75
2022/05/05 02:56:12;;;;;;;;;;;12.70;76.10;;;;;;5088848;28;19961;-75
2022/05/05 02:58:38;;;;;;;;;;;12.70;76.20;;;;;;5070175;28;19912;-75
2022/05/05 03:01:03;;;;;;;;;;;12.70;76.10;;;;;;5069917;28;19912;-75
2022/05/05 03:03:29;;;;;;;;;;;12.70;76.30;;;;;;5070046;28;20356;-75
2022/05/05 03:05:54;;;;;;;;;;;12.70;76.20;;;;;;5088723;28;20357;-74
2022/05/05 03:08:20;;;;;;;;;;;12.70;76.30;;;;;;5069920;28;19919;-75
2022/05/05 03:10:46;;;;;;;;;;;12.60;76.20;;;;;;5053238;28;20254;-76
2022/05/05 03:13:11;;;;;;;;;;;12.60;76.30;;;;;;5088055;28;19996;-75
2022/05/05 03:15:37;;;;;;;;;;;12.60;76.40;;;;;;5088169;28;19916;-75
2022/05/05 03:18:02;;;;;;;;;;;12.60;76.40;;;;;;5053198;28;20054;-75
2022/05/05 03:20:28;;;;;;;;;;;12.60;76.30;;;;;;5069909;28;19912;-76
2022/05/05 03:22:53;;;;;;;;;;;12.60;76.30;;;;;;5070100;28;19923;-75
2022/05/05 03:25:19;;;;;;;;;;;12.60;76.40;;;;;;5070026;28;20266;-75
2022/05/05 03:27:44;;;;;;;;;;;12.60;76.20;;;;;;5087970;28;19916;-76
2022/05/05 03:30:10;;;;;;;;;;;12.60;76.30;;;;;;5088052;28;19956;-75
2022/05/05 03:32:36;;;;;;;;;;;12.60;76.30;;;;;;5069779;28;19912;-74
2022/05/05 03:35:01;;;;;;;;;;;12.60;76.30;;;;;;5069781;28;19908;-75
2022/05/05 03:37:30;;;;;;;;;;;12.60;76.50;;;;;;5087979;28;19966;-75
2022/05/05 03:39:56;;;;;;;;;;;12.60;76.40;;;;;;5087809;28;19912;-75
2022/05/05 03:42:21;;;;;;;;;;;12.60;76.60;;;;;;5066188;28;19973;-75
2022/05/05 03:44:47;;;;;;;;;;;12.60;76.50;;;;;;5067731;28;19916;-75
2022/05/05 03:47:13;;;;;;;;;;;12.50;76.50;;;;;;5066353;28;20015;-76
2022/05/05 03:49:38;;;;;;;;;;;12.60;76.50;;;;;;5067614;28;20030;-76
2022/05/05 03:52:04;;;;;;;;;;;12.50;76.50;;;;;;5049875;28;19912;-76
2022/05/05 03:54:30;;;;;;;;;;;12.50;76.50;;;;;;5069319;28;19909;-74
2022/05/05 03:56:55;;;;;;;;;;;12.60;76.60;;;;;;5071266;28;19912;-74
2022/05/05 03:59:24;;;;;;;;;;;12.60;76.60;;;;;;5053335;28;19963;-75
2022/05/05 04:01:50;;;;;;;;;;;12.60;76.60;;;;;;5069834;28;19924;-75
2022/05/05 04:04:19;;;;;;;;;;;12.50;76.80;;;;;;5070932;28;20003;-76
2022/05/05 04:06:45;;;;;;;;;;;12.50;76.70;;;;;;5054362;28;19917;-76
2022/05/05 04:09:11;;;;;;;;;;;12.50;76.80;;;;;;5071225;28;19920;-75
2022/05/05 04:11:37;;;;;;;;;;;12.50;76.80;;;;;;5069576;28;20266;-76
2022/05/05 04:14:03;;;;;;;;;;;12.50;76.80;;;;;;5069717;28;19915;-75
2022/05/05 04:16:31;;;;;;;;;;;12.50;76.90;;;;;;5069749;28;19912;-75
2022/05/05 04:18:58;;;;;;;;;;;12.50;76.90;;;;;;5070868;28;20007;-74
2022/05/05 04:21:23;;;;;;;;;;;12.50;77.10;;;;;;5070884;28;19935;-75
2022/05/05 04:23:49;;;;;;;;;;;12.50;77.10;;;;;;5069487;28;19928;-75
2022/05/05 04:26:15;;;;;;;;;;;12.50;77.10;;;;;;5069565;28;19912;-75
2022/05/05 04:28:42;;;;;;;;;;;12.50;77.20;;;;;;5052680;28;19920;-74
2022/05/05 04:31:09;;;;;;;;;;;12.50;77.20;;;;;;5069499;28;19991;-76
2022/05/05 04:33:35;;;;;;;;;;;12.50;77.40;;;;;;5070644;28;20278;-76
2022/05/05 04:36:00;;;;;;;;;;;12.50;77.50;;;;;;5069561;28;19916;-75
2022/05/05 04:38:26;;;;;;;;;;;12.50;77.40;;;;;;5069403;28;20002;-76
2022/05/05 04:40:52;;;;;;;;;;;12.50;77.50;;;;;;5070541;28;19913;-75
2022/05/05 04:43:17;;;;;;;;;;;12.40;77.50;;;;;;5069050;28;19924;-75
2022/05/05 04:45:43;;;;;;;;;;;12.40;77.60;;;;;;5070368;28;19991;-74
2022/05/05 04:48:08;;;;;;;;;;;12.40;77.70;;;;;;5069022;28;19920;-75
2022/05/05 04:50:34;;;;;;;;;;;12.40;77.90;;;;;;5068886;28;20317;-75
2022/05/05 04:52:59;;;;;;;;;;;12.40;77.90;;;;;;5052162;28;19913;-75
2022/05/05 04:55:25;;;;;;;;;;;12.40;78.10;;;;;;5068875;28;19924;-76
2022/05/05 04:57:51;;;;;;;;;;;12.40;78.10;;;;;;5070063;28;19989;-74
2022/05/05 05:00:17;;;;;;;;;;;12.40;78.20;;;;;;5070536;28;20007;-75
2022/05/05 05:02:42;;;;;;;;;;;12.50;78.30;;;;;;5051973;28;20418;-75
2022/05/05 05:05:08;;;;;;;;;;;12.50;78.50;;;;;;5069697;28;20006;-76
2022/05/05 05:07:33;;;;;;;;;;;12.50;78.40;;;;;;5068232;28;19913;-76
2022/05/05 05:09:59;;;;;;;;;;;12.60;78.60;;;;;;5068522;28;19917;-75
2022/05/05 05:12:25;;;;;;;;;;;12.60;78.40;;;;;;5068462;28;19991;-77
2022/05/05 05:14:50;;;;;;;;;;;12.70;78.50;;;;;;5069745;28;19962;-76
2022/05/05 05:17:16;;;;;;;;;;;12.70;78.40;;;;;;5069512;28;19916;-75
2022/05/05 05:19:41;;;;;;;;;;;12.70;78.60;;;;;;5068371;28;19923;-75
2022/05/05 05:22:07;;;;;;;;;;;12.70;78.70;;;;;;5068292;28;19940;-75
2022/05/05 05:24:33;;;;;;;;;;;12.70;78.80;;;;;;5051683;28;19991;-75
2022/05/05 05:26:58;;;;;;;;;;;12.70;78.80;;;;;;5069552;28;19917;-75
2022/05/05 05:29:24;;;;;;;;;;;12.70;78.90;;;;;;5067827;28;19912;-75
2022/05/05 05:31:49;;;;;;;;;;;12.80;79.10;;;;;;5069371;28;19951;-75
2022/05/05 05:34:15;;;;;;;;;;;12.80;79.10;;;;;;5068068;28;19912;-75
2022/05/05 05:36:40;;;;;;;;;;;12.80;79.20;;;;;;5069330;28;20363;-74
2022/05/05 05:39:06;;;;;;;;;;;12.90;79.20;;;;;;5051362;28;19964;-75
2022/05/05 05:41:31;;;;;;;;;;;13.00;79.20;;;;;;5067851;28;20282;-75
2022/05/05 05:43:57;;;;;;;;;;;13.10;79.20;;;;;;5087986;28;19973;-75
2022/05/05 05:46:22;;;;;;;;;;;13.10;79.20;;;;;;5071550;28;19946;-76
2022/05/05 05:48:48;;;;;;;;;;;13.20;79.20;;;;;;5070978;28;19939;-75
2022/05/05 05:51:14;;;;;;;;;;;13.20;79.40;;;;;;5054186;28;20010;-74
2022/05/05 05:53:40;;;;;;;;;;;13.30;79.50;;;;;;5070747;28;20314;-75
2022/05/05 05:56:05;;;;;;;;;;;13.30;79.60;;;;;;5071210;28;20270;-74
2022/05/05 05:58:31;;;;;;;;;;;13.30;79.60;;;;;;5070798;28;20003;-76
2022/05/05 06:00:56;;;;;;;;;;;13.40;79.70;;;;;;5053735;28;19927;-76
2022/05/05 06:06:07;;;;;;;;;;;13.40;80.10;;;;;;5088972;28;19935;-76
2022/05/05 06:08:32;;;;;;;;;;;13.40;79.70;;;;;;5054135;28;20155;-76
2022/05/05 06:10:58;;;;;;;;;;;13.50;79.80;;;;;;5053932;28;19919;-76
2022/05/05 06:13:24;;;;;;;;;;;13.50;79.80;;;;;;5054056;28;20273;-75
2022/05/05 06:15:50;;;;;;;;;;;13.60;79.90;;;;;;5088951;28;19916;-75
2022/05/05 06:18:15;;;;;;;;;;;13.60;79.90;;;;;;5070531;28;19923;-65
2022/05/05 06:20:41;;;;;;;;;;;13.60;80.00;;;;;;5070111;28;20408;-75
2022/05/05 06:23:06;;;;;;;;;;;13.70;80.00;;;;;;5088509;28;19915;-76
2022/05/05 06:25:32;;;;;;;;;;;13.80;80.00;;;;;;5070289;28;20366;-75
2022/05/05 06:27:58;;;;;;;;;;;13.80;79.90;;;;;;5069928;28;19947;-75
2022/05/05 06:30:23;;;;;;;;;;;13.80;79.90;;;;;;5070070;28;19951;-76
2022/05/05 06:32:49;;;;;;;;;;;13.90;80.00;;;;;;5070203;28;19920;-76
2022/05/05 06:35:15;;;;;;;;;;;13.90;80.00;;;;;;5069630;28;19912;-75
2022/05/05 06:37:40;;;;;;;;;;;14.00;80.00;;;;;;5088031;28;19909;-76
2022/05/05 06:40:06;;;;;;;;;;;14.10;79.90;;;;;;5069623;28;19916;-75
2022/05/05 06:42:32;;;;;;;;;;;14.10;79.90;;;;;;5087805;28;19916;-76
2022/05/05 06:44:57;;;;;;;;;;;14.30;80.00;;;;;;5087824;28;19913;-76
2022/05/05 06:47:24;;;;;;;;;;;14.30;80.00;;;;;;5088081;28;19939;-75
2022/05/05 06:49:50;;;;;;;;;;;14.40;80.10;;;;;;5069832;28;20354;-76
2022/05/05 06:52:16;;;;;;;;;;;14.40;80.00;;;;;;5069496;28;20019;-76
2022/05/05 06:54:41;;;;;;;;;;;14.50;80.00;;;;;;5069582;28;19913;-76
2022/05/05 06:57:07;;;;;;;;;;;14.60;80.10;;;;;;5069743;28;20331;-75
2022/05/05 06:59:33;;;;;;;;;;;14.70;80.00;;;;;;5087566;28;19953;-75
2022/05/05 07:02:02;;;;;;;;;;;14.80;79.90;;;;;;5086650;28;19912;-74
2022/05/05 07:07:13;;;;;;;;;;;14.70;79.90;;;;;;5088343;28;19915;-75
2022/05/05 07:12:26;;;;;;;;;;;14.80;80.30;;;;;;5088026;28;20372;-75
2022/05/05 07:14:52;;;;;;;;;;;14.90;80.30;;;;;;5089347;28;19916;-76
2022/05/05 07:17:17;;;;;;;;;;;15.00;80.40;;;;;;5089668;28;20342;-75
2022/05/05 07:19:43;;;;;;;;;;;15.20;80.40;;;;;;5070946;28;19997;-77
2022/05/05 07:22:09;;;;;;;;;;;15.30;80.30;;;;;;5069522;28;19912;-72
2022/05/05 07:24:35;;;;;;;;;;;15.40;80.30;;;;;;5087398;28;20018;-76
2022/05/05 07:27:01;;;;;;;;;;;15.50;80.30;;;;;;5087307;28;20309;-76
2022/05/05 07:29:27;;;;;;;;;;;15.70;80.30;;;;;;5089173;28;19999;-74
2022/05/05 07:31:53;;;;;;;;;;;15.90;80.30;;;;;;5073358;28;19998;-76
2022/05/05 07:34:19;;;;;;;;;;;16.00;80.10;;;;;;5090016;28;19908;-75
2022/05/05 07:36:44;;;;;;;;;;;16.10;80.00;;;;;;5071878;28;19916;-74
2022/05/05 07:39:10;;;;;;;;;;;16.30;80.00;;;;;;5091912;28;19928;-75
2022/05/05 07:41:35;;;;;;;;;;;16.40;79.90;;;;;;5072798;28;20018;-75
2022/05/05 07:44:01;;;;;;;;;;;16.60;80.10;;;;;;5072927;28;19977;-76
2022/05/05 07:46:27;;;;;;;;;;;16.90;80.10;;;;;;5056340;28;20298;-75
2022/05/05 07:48:54;;;;;;;;;;;17.10;79.50;;;;;;5072314;28;19956;-76
2022/05/05 07:51:19;;;;;;;;;;;17.30;79.30;;;;;;5090780;28;20439;-76
2022/05/05 07:54:34;;;;;;;;;;;17.40;79.00;;;;;;5090875;28;19912;-75
2022/05/05 07:56:33;;;;;;;;;;;17.50;78.60;;;;;;5090598;28;19960;-75
2022/05/05 07:58:59;;;;;;;;;;;17.40;78.00;;;;;;5090518;28;19908;-76
2022/05/05 08:01:24;;;;;;;;;;;17.30;78.30;;;;;;5072433;28;20294;-76
2022/05/05 08:03:50;;;;;;;;;;;17.20;78.40;;;;;;5072708;28;20234;-76
2022/05/05 08:06:16;;;;;;;;;;;17.10;78.60;;;;;;5090260;28;19965;-76
2022/05/05 08:08:41;;;;;;;;;;;17.00;78.90;;;;;;5072433;28;20011;-75
2022/05/05 08:11:07;;;;;;;;;;;17.10;78.90;;;;;;5089779;28;19915;-75
2022/05/05 08:13:33;;;;;;;;;;;17.10;79.00;;;;;;5072137;28;19939;-75
2022/05/05 08:15:58;;;;;;;;;;;17.20;79.00;;;;;;5071667;28;19914;-73
2022/05/05 08:18:24;;;;;;;;;;;17.30;78.90;;;;;;5091082;28;20282;-75
2022/05/05 08:20:49;;;;;;;;;;;17.30;78.60;;;;;;5072206;28;19912;-75
2022/05/05 08:23:15;;;;;;;;;;;17.30;78.40;;;;;;5090347;28;19912;-74
2022/05/05 08:28:28;;;;;;;;;;;17.30;78.50;;;;;;5090698;28;20009;-76
2022/05/05 08:30:53;;;;;;;;;;;17.40;78.80;;;;;;5072732;28;19965;-76
2022/05/05 08:33:19;;;;;;;;;;;17.40;78.50;;;;;;5071519;28;19913;-75
2022/05/05 08:35:44;;;;;;;;;;;17.40;78.50;;;;;;5089804;28;19919;-76
2022/05/05 08:38:10;;;;;;;;;;;17.30;78.40;;;;;;5090682;28;20320;-75
2022/05/05 08:40:39;;;;;;;;;;;17.30;78.50;;;;;;5088987;28;19948;-74
2022/05/05 08:43:04;;;;;;;;;;;17.30;79.20;;;;;;5089776;28;20027;-76
2022/05/05 08:45:30;;;;;;;;;;;17.20;78.60;;;;;;5054716;28;20003;-77
2022/05/05 08:47:58;;;;;;;;;;;17.20;78.60;;;;;;5089651;28;19921;-75
2022/05/05 08:50:24;;;;;;;;;;;17.30;78.80;;;;;;5089778;28;19908;-75
2022/05/05 08:52:50;;;;;;;;;;;17.30;78.70;;;;;;5089879;28;19962;-75
2022/05/05 08:55:17;;;;;;;;;;;17.40;78.70;;;;;;5073036;28;19916;-75
2022/05/05 08:57:42;;;;;;;;;;;17.50;78.80;;;;;;5091204;28;19988;-76
2022/05/05 09:00:09;;;;;;;;;;;17.60;78.80;;;;;;5090405;28;20557;-75
2022/05/05 09:02:35;;;;;;;;;;;17.70;78.80;;;;;;5090946;28;19917;-75
2022/05/05 09:05:03;;;;;;;;;;;18.20;79.90;;;;;;5091407;28;20275;-76
2022/05/05 09:07:45;;;;;;;;;;;19.10;80.30;;;;;;5056340;28;19912;-77
2022/05/05 09:10:10;;;;;;;;;;;20.50;80.70;;;;;;5091758;28;20274;-79
2022/05/05 09:12:36;;;;;;;;;;;21.70;79.30;;;;;;5091719;28;19916;-75
2022/05/05 09:15:07;;;;;;;;;;;22.10;77.90;;;;;;5091605;28;19912;-78
2022/05/05 09:17:35;;;;;;;;;;;22.60;77.80;;;;;;5087598;28;19940;-77
2022/05/05 09:20:01;;;;;;;;;;;23.30;77.60;;;;;;5093552;28;19916;-78
2022/05/05 09:22:27;;;;;;;;;;;23.70;76.10;;;;;;5073075;28;20336;-77
2022/05/05 09:24:54;;;;;;;;;;;23.80;75.80;;;;;;5091831;28;19908;-73
2022/05/05 09:27:21;;;;;;;;;;;24.00;75.30;;;;;;5092704;28;19918;-76
2022/05/05 09:29:56;;;;;;;;;;;24.30;74.20;;;;;;5090821;28;20408;-79
2022/05/05 09:32:25;;;;;;;;;;;24.60;73.70;;;;;;5088137;28;20266;-75
2022/05/05 09:34:58;;;;;;;;;;;25.00;72.80;;;;;;5090480;28;19916;-76
2022/05/05 09:37:24;;;;;;;;;;;25.10;72.00;;;;;;5067209;28;20277;-74
2022/05/05 09:39:53;;;;;;;;;;;25.30;72.10;;;;;;5071729;28;19912;-73
2022/05/05 09:42:35;;;;;;;;;;;25.50;71.70;;;;;;5071217;28;19919;-76
2022/05/05 09:45:21;;;;;;;;;;;25.60;70.80;;;;;;5072064;28;20254;-75
2022/05/05 09:47:51;;;;;;;;;;;25.60;70.80;;;;;;5090104;28;19908;-76
2022/05/05 09:50:19;;;;;;;;;;;25.50;71.20;;;;;;5089498;28;20010;-76
2022/05/05 09:58:19;;;;;;;;;;;24.60;71.70;;;;;;5090564;28;19922;-75
2022/05/05 10:00:47;;;;;;;;;;;24.40;71.10;;;;;;5089817;28;19949;-78
2022/05/05 10:06:02;;;;;;;;;;;23.70;70.00;;;;;;5089378;28;19953;-75
2022/05/05 10:08:42;;;;;;;;;;;23.30;69.70;;;;;;5071608;28;20284;-76
2022/05/05 10:11:08;;;;;;;;;;;22.90;69.60;;;;;;5071462;28;20277;-75
2022/05/05 10:13:37;;;;;;;;;;;22.40;69.90;;;;;;5089776;28;19912;-76
2022/05/05 10:16:05;;;;;;;;;;;22.20;70.60;;;;;;5089852;28;19942;-75
2022/05/05 10:18:37;;;;;;;;;;;22.20;71.10;;;;;;5089570;28;20499;-73
2022/05/05 10:21:04;;;;;;;;;;;22.50;71.20;;;;;;5089385;28;20358;-76
2022/05/05 10:23:33;;;;;;;;;;;23.00;71.20;;;;;;5089462;28;20309;-75
2022/05/05 10:26:00;;;;;;;;;;;23.40;70.70;;;;;;5089510;28;19914;-74
2022/05/05 10:28:39;;;;;;;;;;;23.60;69.40;;;;;;5089591;28;19982;-74
2022/05/05 10:31:09;;;;;;;;;;;23.60;69.00;;;;;;5089479;28;19951;-75
2022/05/05 10:33:53;;;;;;;;;;;23.50;68.60;;;;;;5072489;28;19964;-74
2022/05/05 10:36:25;;;;;;;;;;;23.20;68.30;;;;;;5090168;28;19915;-74
2022/05/05 10:38:52;;;;;;;;;;;22.80;68.70;;;;;;5089613;28;19977;-74
2022/05/05 10:41:29;;;;;;;;;;;22.60;69.60;;;;;;5089694;28;19912;-75
2022/05/05 10:44:13;;;;;;;;;;;22.60;70.20;;;;;;5070668;28;19938;-77
2022/05/05 10:46:59;;;;;;;;;;;23.20;70.40;;;;;;5071342;28;19954;-75
2022/05/05 10:49:33;;;;;;;;;;;24.20;70.40;;;;;;5089354;28;19916;-77
2022/05/05 10:52:07;;;;;;;;;;;25.60;71.20;;;;;;5088798;28;19939;-74
2022/05/05 10:54:33;;;;;;;;;;;27.30;70.10;;;;;;5089861;28;19961;-73
2022/05/05 10:57:18;;;;;;;;;;;28.80;67.50;;;;;;5071031;28;19928;-75
2022/05/05 11:00:03;;;;;;;;;;;29.60;67.00;;;;;;5070687;28;20324;-77
2022/05/05 11:02:28;;;;;;;;;;;29.60;65.00;;;;;;5089437;28;20273;-74
2022/05/05 11:05:14;;;;;;;;;;;28.60;62.30;;;;;;5089174;28;19916;-78
2022/05/05 11:07:40;;;;;;;;;;;27.70;62.60;;;;;;5089486;28;19954;-75
2022/05/05 11:10:06;;;;;;;;;;;26.80;62.70;;;;;;5071999;28;19920;-75
2022/05/05 11:12:32;;;;;;;;;;;26.30;62.50;;;;;;5090321;28;20384;-75
2022/05/05 11:23:56;;;;;;;;;;;24.40;63.80;;;;;;5086182;28;20377;-75
2022/05/05 11:26:22;;;;;;;;;;;24.00;64.10;;;;;;5088604;28;19908;-76
2022/05/05 11:28:48;;;;;;;;;;;24.00;65.00;;;;;;5070567;28;19931;-75
2022/05/05 11:31:18;;;;;;;;;;;24.10;65.10;;;;;;5088226;28;20558;-76
2022/05/05 11:34:01;;;;;;;;;;;24.40;64.80;;;;;;5069866;28;19927;-75
2022/05/05 11:36:31;;;;;;;;;;;24.80;64.70;;;;;;5088957;28;20238;-76
2022/05/05 11:38:57;;;;;;;;;;;25.10;63.30;;;;;;5088159;28;19914;-77
2022/05/05 11:41:23;;;;;;;;;;;25.10;62.80;;;;;;5088381;28;20359;-75
2022/05/05 11:46:33;;;;;;;;;;;25.30;63.60;;;;;;5089081;28;19941;-74
2022/05/05 11:48:59;;;;;;;;;;;25.90;62.40;;;;;;5088617;28;19923;-76
2022/05/05 11:51:26;;;;;;;;;;;26.70;63.20;;;;;;5088806;28;19912;-75
2022/05/05 11:54:04;;;;;;;;;;;27.80;63.30;;;;;;5090657;28;19999;-76
2022/05/05 11:56:30;;;;;;;;;;;28.40;61.50;;;;;;5090625;28;20277;-77
2022/05/05 12:01:52;;;;;;;;;;;27.70;58.50;;;;;;5089209;28;19915;-74
2022/05/05 12:04:18;;;;;;;;;;;26.50;58.70;;;;;;5089112;28;20381;-75
2022/05/05 12:06:43;;;;;;;;;;;25.70;59.40;;;;;;5071180;28;19991;-73
2022/05/05 12:09:09;;;;;;;;;;;25.00;60.00;;;;;;5089332;28;19927;-75
2022/05/05 12:11:35;;;;;;;;;;;24.40;60.40;;;;;;5090064;28;20276;-76
2022/05/05 12:14:05;;;;;;;;;;;23.90;60.70;;;;;;5070703;28;19908;-75
2022/05/05 12:16:32;;;;;;;;;;;23.40;60.90;;;;;;5073393;28;19908;-75
2022/05/05 12:18:58;;;;;;;;;;;23.10;61.20;;;;;;5092046;28;19912;-74
2022/05/05 12:21:24;;;;;;;;;;;22.90;61.70;;;;;;5093118;28;19912;-74
2022/05/05 12:23:59;;;;;;;;;;;22.90;62.20;;;;;;5094834;28;19912;-76
2022/05/05 12:26:29;;;;;;;;;;;23.00;62.20;;;;;;5095706;28;19927;-73
2022/05/05 12:28:56;;;;;;;;;;;23.10;61.80;;;;;;5094922;28;20403;-75
2022/05/05 12:31:24;;;;;;;;;;;23.10;61.80;;;;;;5076902;28;19974;-75
2022/05/05 12:33:50;;;;;;;;;;;23.10;61.90;;;;;;5075289;28;19912;-77
2022/05/05 12:36:17;;;;;;;;;;;23.00;61.70;;;;;;5091681;28;19912;-72
2022/05/05 12:38:43;;;;;;;;;;;22.80;61.40;;;;;;5092414;28;19916;-75
2022/05/05 12:41:09;;;;;;;;;;;22.50;61.60;;;;;;5092337;28;20362;-75
2022/05/05 12:43:34;;;;;;;;;;;22.20;62.00;;;;;;5090936;28;19965;-76
2022/05/05 12:46:03;;;;;;;;;;;22.10;62.30;;;;;;5091053;28;19908;-74
2022/05/05 12:48:29;;;;;;;;;;;22.00;62.70;;;;;;5091689;28;19928;-76
2022/05/05 12:50:55;;;;;;;;;;;22.00;62.90;;;;;;5091623;28;19916;-75
2022/05/05 13:01:45;;;;;;;;;;;22.00;63.10;;;;;;5090767;28;19916;-73
2022/05/05 13:04:14;;;;;;;;;;;21.90;63.10;;;;;;5090244;28;19915;-72
2022/05/05 13:06:41;;;;;;;;;;;21.90;63.50;;;;;;5090710;28;19972;-75
2022/05/05 13:09:10;;;;;;;;;;;21.90;63.50;;;;;;5090631;28;20011;-75
2022/05/05 13:11:36;;;;;;;;;;;22.10;63.60;;;;;;5090295;28;19957;-75
2022/05/05 13:14:02;;;;;;;;;;;22.10;63.20;;;;;;5091327;28;20376;-75
2022/05/05 13:16:29;;;;;;;;;;;22.00;62.90;;;;;;5091219;28;19957;-76
2022/05/05 13:18:56;;;;;;;;;;;21.80;62.80;;;;;;5091372;28;19909;-75
2022/05/05 13:21:22;;;;;;;;;;;21.60;63.00;;;;;;5072719;28;19912;-76
2022/05/05 13:23:47;;;;;;;;;;;21.40;63.20;;;;;;5090511;28;19913;-76
2022/05/05 13:26:13;;;;;;;;;;;21.30;63.30;;;;;;5090259;28;20340;-77
2022/05/05 13:28:38;;;;;;;;;;;21.30;63.40;;;;;;5071894;28;19985;-76
2022/05/05 13:31:04;;;;;;;;;;;21.30;63.90;;;;;;5090860;28;19912;-76
2022/05/05 13:33:30;;;;;;;;;;;21.40;63.70;;;;;;5090342;28;20255;-76
2022/05/05 13:35:55;;;;;;;;;;;21.40;63.60;;;;;;5091045;28;20010;-77
2022/05/05 13:38:23;;;;;;;;;;;21.50;63.70;;;;;;5091789;28;20251;-76
2022/05/05 13:40:49;;;;;;;;;;;21.60;63.80;;;;;;5073209;28;20272;-76
2022/05/05 13:43:17;;;;;;;;;;;21.60;63.80;;;;;;5092990;28;20253;-76
2022/05/05 13:45:42;;;;;;;;;;;21.70;63.90;;;;;;5074715;28;19918;-76
2022/05/05 13:48:08;;;;;;;;;;;21.80;63.80;;;;;;5093953;28;19916;-74
2022/05/05 13:50:34;;;;;;;;;;;21.90;63.80;;;;;;5092231;28;19908;-76
2022/05/05 13:52:59;;;;;;;;;;;22.00;63.70;;;;;;5094102;28;19957;-77
2022/05/05 13:55:31;;;;;;;;;;;22.10;63.80;;;;;;5074231;28;19999;-77
2022/05/05 13:58:00;;;;;;;;;;;22.20;63.80;;;;;;5074721;28;20364;-75
2022/05/05 14:00:26;;;;;;;;;;;22.30;63.50;;;;;;5089724;28;19934;-76
2022/05/05 14:02:52;;;;;;;;;;;22.50;63.60;;;;;;5090396;28;19920;-76
2022/05/05 14:05:17;;;;;;;;;;;22.60;63.70;;;;;;5090492;28;19919;-75
2022/05/05 14:13:11;;;;;;;;;;;23.00;63.10;;;;;;5089534;28;19962;-74
2022/05/05 14:15:37;;;;;;;;;;;23.00;62.80;;;;;;5071787;28;19952;-75
2022/05/05 14:18:05;;;;;;;;;;;23.00;63.00;;;;;;5090486;28;19908;-75
2022/05/05 14:20:33;;;;;;;;;;;23.20;62.90;;;;;;5089690;28;20391;-75
2022/05/05 14:22:59;;;;;;;;;;;23.30;63.10;;;;;;5090085;28;19932;-75
2022/05/05 14:25:26;;;;;;;;;;;23.50;63.00;;;;;;5090438;28;19951;-76
2022/05/05 14:27:51;;;;;;;;;;;23.70;62.80;;;;;;5089941;28;19916;-75
2022/05/05 14:30:17;;;;;;;;;;;23.80;62.60;;;;;;5054937;28;20006;-78
2022/05/05 14:32:43;;;;;;;;;;;23.80;62.20;;;;;;5089621;28;19908;-77
2022/05/05 14:35:08;;;;;;;;;;;23.70;62.10;;;;;;5089906;28;20246;-74
2022/05/05 14:37:34;;;;;;;;;;;23.50;62.10;;;;;;5089060;28;19909;-75
2022/05/05 14:40:00;;;;;;;;;;;23.40;62.30;;;;;;5088611;28;20350;-74
2022/05/05 14:42:26;;;;;;;;;;;23.20;62.40;;;;;;5088835;28;19936;-75
2022/05/05 14:44:52;;;;;;;;;;;23.10;62.60;;;;;;5055007;28;19965;-75
2022/05/05 14:47:18;;;;;;;;;;;22.80;62.30;;;;;;5089348;28;19916;-77
2022/05/05 14:49:48;;;;;;;;;;;22.50;62.20;;;;;;5089342;28;20011;-76
2022/05/05 14:52:14;;;;;;;;;;;22.20;62.60;;;;;;5089569;28;19915;-76
2022/05/05 14:54:41;;;;;;;;;;;22.10;63.10;;;;;;5070931;28;20515;-74
2022/05/05 14:57:07;;;;;;;;;;;22.10;63.30;;;;;;5070188;28;19934;-75
2022/05/05 14:59:32;;;;;;;;;;;22.10;63.40;;;;;;5071126;28;19908;-76
2022/05/05 15:01:58;;;;;;;;;;;22.20;63.40;;;;;;5089330;28;20278;-74
2022/05/05 15:04:23;;;;;;;;;;;22.30;63.10;;;;;;5089182;28;19957;-73
2022/05/05 15:06:49;;;;;;;;;;;22.30;62.80;;;;;;5088503;28;19951;-77
2022/05/05 15:09:15;;;;;;;;;;;22.30;62.60;;;;;;5089432;28;20145;-76
2022/05/05 15:11:41;;;;;;;;;;;22.30;62.70;;;;;;5088382;28;19919;-75
2022/05/05 15:14:13;;;;;;;;;;;22.40;62.80;;;;;;5088372;28;20334;-73
2022/05/05 15:16:38;;;;;;;;;;;22.40;62.80;;;;;;5088235;28;19975;-74